Daly City, CA (94015)

8:45 PM PDT on September 02, 2014 (GMT -0700)
Mussel Rock | Change Station
CLOSE
Current Station
Personal Weather Station
Location: Daly City, CA
Elevation: 483 ft
Nearby Weather Stations

Elev 483 ft 37.67 °N, 122.49 °W | Updated 17 seconds ago

Partly Cloudy
Partly Cloudy
58.1 °F
Feels Like 58.1 °F
N
2.9
Wind Variable Wind from WSW
Gusts 9.0 mph

Today
High -- | Low -- °F
--% Chance of Precip.
Yesterday
High -- | Low -- °F
Precip. -- in
6:40 AM 7:37 PM
First Quarter, 58% visible
Pressure 29.79 in
Visibility 10.0 miles
Clouds Few 700 ft
Dew Point 57 °F
Humidity 96%
Rainfall 0.00 in
Snow Depth Not available.
UV 0.0 out of 12
Pollen 7.30 out of 12
Air Quality Not available.
Flu Activity Not available.
METAR KSFO 030256Z 27014KT 10SM FEW007 17/14 A2979 RMK AO2 SLP088 T01720144 55000 $

More Conditions Fewer Conditions

Pressure 29.79 in
Visibility 10.0 miles
Clouds Few 700 ft
Dew Point 57 °F
Humidity 96%
Rainfall 0.00 in
Snow Depth Not available.
UV 0.0 out of 12
Pollen 7.30 out of 12
Air Quality Not available.
Flu Activity Not available.
METAR KSFO 030256Z 27014KT 10SM FEW007 17/14 A2979 RMK AO2 SLP088 T01720144 55000 $

More Conditions Fewer Conditions

10-Day Weather Forecast

Almanac

Astronomy

Sep. 02, 2014 Rise Set
Actual Time 6:40 AM PDT 7:37 PM PDT
Civil Twilight 6:14 AM PDT 8:04 PM PDT
Nautical Twilight 5:42 AM PDT 8:35 PM PDT
Astronomical Twilight 5:09 AM PDT 9:08 PM PDT
Moon 2:22 PM PDT (9/2) No Moon Set
Length of Visible Light 13h 49m
Length of Day
12h 56m
Tomorrow will be 2m 20s shorter.
First Quarter, 58% of the Moon is Illuminated
Today
First Quarter
Sep 8
Full
Sep 15
Last Quarter
Sep 24
New
Oct 1
First Quarter

Today's Extremes

State Highs State Lows

Community

WunderPhotos

Upload Photos

1,749,867 photos uploaded!

WunderBlogs® & News

Nearby

Snow Depth

Station Depth Elevation
Blue Lakes 0 in 8000 ft
Echo Peak 0 in 7800 ft
Leavitt Lake 0 in 9400 ft
CSS Lab 1 in 6900 ft
Tahoe City Cross 0 in 6750 ft

Earthquake Activity

City Distance Mag. Time & Date
Cobb, California 80 miles 2.5 12:00 PM PDT
2014-09-02
Yountville, California 47 miles 2.6 1:15 PM PDT
2014-09-01
Gilroy, California 73 miles 3.4 9:10 AM PDT
2014-09-01
Green Valley, California 42 miles 2.5 6:37 AM PDT
2014-08-31
Minimum magnitude displayed is 2.5.

Coastal Water Temperatures

Place Temperature
Point Reyes, CA 57.9 °F
San Francisco, CA 64.9 °F
Richmond, CA 68.0 °F

Nearby Weather Stations